sensor_id;sensor_type;location;lat;lon;timestamp;P1;durP1;ratioP1;P2;durP2;ratioP2
32838;SDS011;19182;41.820;12.808;2023-08-08T00:01:39;9.63;;;2.28;;
32838;SDS011;19182;41.820;12.808;2023-08-08T00:04:08;8.02;;;2.28;;
32838;SDS011;19182;41.820;12.808;2023-08-08T00:06:34;10.93;;;2.17;;
32838;SDS011;19182;41.820;12.808;2023-08-08T00:09:00;11.43;;;2.20;;
32838;SDS011;19182;41.820;12.808;2023-08-08T00:11:26;9.63;;;2.55;;
32838;SDS011;19182;41.820;12.808;2023-08-08T00:13:52;13.27;;;2.65;;
32838;SDS011;19182;41.820;12.808;2023-08-08T00:16:17;12.48;;;2.97;;
32838;SDS011;19182;41.820;12.808;2023-08-08T00:18:43;20.08;;;3.88;;
32838;SDS011;19182;41.820;12.808;2023-08-08T00:21:09;11.45;;;2.83;;
32838;SDS011;19182;41.820;12.808;2023-08-08T00:23:34;14.30;;;2.78;;
32838;SDS011;19182;41.820;12.808;2023-08-08T00:26:00;12.82;;;3.65;;
32838;SDS011;19182;41.820;12.808;2023-08-08T00:28:26;11.43;;;3.53;;
32838;SDS011;19182;41.820;12.808;2023-08-08T00:30:51;15.48;;;4.88;;
32838;SDS011;19182;41.820;12.808;2023-08-08T00:33:17;15.70;;;3.47;;
32838;SDS011;19182;41.820;12.808;2023-08-08T00:35:43;14.60;;;3.92;;
32838;SDS011;19182;41.820;12.808;2023-08-08T00:38:09;17.35;;;4.30;;
32838;SDS011;19182;41.820;12.808;2023-08-08T00:45:30;17.13;;;3.97;;
32838;SDS011;19182;41.820;12.808;2023-08-08T00:47:56;15.32;;;3.38;;
32838;SDS011;19182;41.820;12.808;2023-08-08T00:50:22;21.17;;;4.03;;
32838;SDS011;19182;41.820;12.808;2023-08-08T00:52:48;19.42;;;3.97;;
32838;SDS011;19182;41.820;12.808;2023-08-08T00:55:14;20.80;;;3.80;;
32838;SDS011;19182;41.820;12.808;2023-08-08T00:57:40;15.98;;;3.65;;
32838;SDS011;19182;41.820;12.808;2023-08-08T01:00:07;19.58;;;4.53;;
32838;SDS011;19182;41.820;12.808;2023-08-08T01:02:35;24.77;;;4.68;;
32838;SDS011;19182;41.820;12.808;2023-08-08T01:05:00;19.38;;;4.50;;
32838;SDS011;19182;41.820;12.808;2023-08-08T01:10:17;12.45;;;4.28;;
32838;SDS011;19182;41.820;12.808;2023-08-08T01:12:48;15.77;;;4.75;;
32838;SDS011;19182;41.820;12.808;2023-08-08T01:15:18;17.23;;;3.65;;
32838;SDS011;19182;41.820;12.808;2023-08-08T01:17:44;26.45;;;4.45;;
32838;SDS011;19182;41.820;12.808;2023-08-08T01:20:13;17.10;;;4.20;;
32838;SDS011;19182;41.820;12.808;2023-08-08T01:23:26;23.75;;;4.97;;
32838;SDS011;19182;41.820;12.808;2023-08-08T01:25:40;19.48;;;3.80;;
32838;SDS011;19182;41.820;12.808;2023-08-08T01:28:07;14.57;;;4.30;;
32838;SDS011;19182;41.820;12.808;2023-08-08T01:30:33;23.80;;;4.38;;
32838;SDS011;19182;41.820;12.808;2023-08-08T01:32:59;24.35;;;3.85;;
32838;SDS011;19182;41.820;12.808;2023-08-08T01:35:26;14.07;;;3.70;;
32838;SDS011;19182;41.820;12.808;2023-08-08T01:37:58;17.60;;;5.03;;
32838;SDS011;19182;41.820;12.808;2023-08-08T01:40:33;19.33;;;4.07;;
32838;SDS011;19182;41.820;12.808;2023-08-08T01:43:01;21.92;;;4.15;;
32838;SDS011;19182;41.820;12.808;2023-08-08T01:45:29;24.42;;;3.88;;
32838;SDS011;19182;41.820;12.808;2023-08-08T01:47:55;19.30;;;4.28;;
32838;SDS011;19182;41.820;12.808;2023-08-08T01:50:21;18.58;;;4.03;;
32838;SDS011;19182;41.820;12.808;2023-08-08T01:52:47;20.52;;;4.90;;
32838;SDS011;19182;41.820;12.808;2023-08-08T01:55:12;20.95;;;4.20;;
32838;SDS011;19182;41.820;12.808;2023-08-08T01:57:39;32.28;;;5.13;;
32838;SDS011;19182;41.820;12.808;2023-08-08T02:00:06;17.52;;;4.22;;
32838;SDS011;19182;41.820;12.808;2023-08-08T02:02:33;23.70;;;4.07;;
32838;SDS011;19182;41.820;12.808;2023-08-08T02:05:01;17.55;;;5.35;;
32838;SDS011;19182;41.820;12.808;2023-08-08T02:07:27;19.25;;;3.95;;
32838;SDS011;19182;41.820;12.808;2023-08-08T02:09:52;18.23;;;4.50;;
32838;SDS011;19182;41.820;12.808;2023-08-08T02:12:18;16.23;;;4.20;;
32838;SDS011;19182;41.820;12.808;2023-08-08T02:14:44;19.42;;;4.53;;
32838;SDS011;19182;41.820;12.808;2023-08-08T02:17:09;22.98;;;4.53;;
32838;SDS011;19182;41.820;12.808;2023-08-08T02:19:35;23.38;;;4.38;;
32838;SDS011;19182;41.820;12.808;2023-08-08T02:22:02;26.60;;;4.47;;
32838;SDS011;19182;41.820;12.808;2023-08-08T02:24:28;23.20;;;4.07;;
32838;SDS011;19182;41.820;12.808;2023-08-08T02:26:53;19.55;;;4.47;;
32838;SDS011;19182;41.820;12.808;2023-08-08T02:29:19;22.38;;;4.20;;
32838;SDS011;19182;41.820;12.808;2023-08-08T02:31:45;21.27;;;3.88;;
32838;SDS011;19182;41.820;12.808;2023-08-08T02:34:10;30.30;;;5.78;;
32838;SDS011;19182;41.820;12.808;2023-08-08T02:36:36;16.83;;;4.05;;
32838;SDS011;19182;41.820;12.808;2023-08-08T02:39:02;22.60;;;5.07;;
32838;SDS011;19182;41.820;12.808;2023-08-08T02:41:28;17.70;;;4.38;;
32838;SDS011;19182;41.820;12.808;2023-08-08T02:43:53;21.30;;;4.03;;
32838;SDS011;19182;41.820;12.808;2023-08-08T02:46:19;24.25;;;4.32;;
32838;SDS011;19182;41.820;12.808;2023-08-08T02:48:45;15.25;;;4.47;;
32838;SDS011;19182;41.820;12.808;2023-08-08T02:51:11;18.48;;;4.65;;
32838;SDS011;19182;41.820;12.808;2023-08-08T02:53:37;18.80;;;4.55;;
32838;SDS011;19182;41.820;12.808;2023-08-08T02:56:02;17.23;;;4.43;;
32838;SDS011;19182;41.820;12.808;2023-08-08T02:58:28;18.30;;;4.72;;
32838;SDS011;19182;41.820;12.808;2023-08-08T03:00:54;14.63;;;3.53;;
32838;SDS011;19182;41.820;12.808;2023-08-08T03:03:19;26.70;;;4.28;;
32838;SDS011;19182;41.820;12.808;2023-08-08T03:05:46;16.98;;;3.50;;
32838;SDS011;19182;41.820;12.808;2023-08-08T03:08:12;15.45;;;3.88;;
32838;SDS011;19182;41.820;12.808;2023-08-08T03:10:38;15.13;;;3.60;;
32838;SDS011;19182;41.820;12.808;2023-08-08T03:13:03;17.10;;;3.65;;
32838;SDS011;19182;41.820;12.808;2023-08-08T03:15:29;15.30;;;3.83;;
32838;SDS011;19182;41.820;12.808;2023-08-08T03:17:55;16.55;;;4.28;;
32838;SDS011;19182;41.820;12.808;2023-08-08T03:20:21;26.67;;;4.43;;
32838;SDS011;19182;41.820;12.808;2023-08-08T03:22:48;15.00;;;3.35;;
32838;SDS011;19182;41.820;12.808;2023-08-08T03:25:14;18.70;;;4.22;;
32838;SDS011;19182;41.820;12.808;2023-08-08T03:27:40;20.67;;;3.60;;
32838;SDS011;19182;41.820;12.808;2023-08-08T03:30:07;21.05;;;3.78;;
32838;SDS011;19182;41.820;12.808;2023-08-08T03:32:33;24.13;;;4.57;;
32838;SDS011;19182;41.820;12.808;2023-08-08T03:34:59;12.98;;;4.07;;
32838;SDS011;19182;41.820;12.808;2023-08-08T03:37:26;15.73;;;5.05;;
32838;SDS011;19182;41.820;12.808;2023-08-08T03:39:51;28.58;;;4.50;;
32838;SDS011;19182;41.820;12.808;2023-08-08T03:42:17;21.60;;;4.43;;
32838;SDS011;19182;41.820;12.808;2023-08-08T03:44:43;18.77;;;4.10;;
32838;SDS011;19182;41.820;12.808;2023-08-08T03:47:10;14.00;;;4.00;;
32838;SDS011;19182;41.820;12.808;2023-08-08T03:49:36;18.98;;;3.85;;
32838;SDS011;19182;41.820;12.808;2023-08-08T03:52:01;25.98;;;4.45;;
32838;SDS011;19182;41.820;12.808;2023-08-08T03:54:27;19.85;;;4.63;;
32838;SDS011;19182;41.820;12.808;2023-08-08T03:56:54;18.38;;;3.88;;
32838;SDS011;19182;41.820;12.808;2023-08-08T03:59:20;11.30;;;3.67;;
32838;SDS011;19182;41.820;12.808;2023-08-08T04:01:45;14.10;;;3.38;;
32838;SDS011;19182;41.820;12.808;2023-08-08T04:04:11;19.65;;;4.03;;
32838;SDS011;19182;41.820;12.808;2023-08-08T04:06:37;15.27;;;4.43;;
32838;SDS011;19182;41.820;12.808;2023-08-08T04:09:02;24.67;;;4.53;;
32838;SDS011;19182;41.820;12.808;2023-08-08T04:11:28;21.10;;;4.45;;
32838;SDS011;19182;41.820;12.808;2023-08-08T04:13:54;19.42;;;4.68;;
32838;SDS011;19182;41.820;12.808;2023-08-08T04:16:19;22.90;;;4.20;;
32838;SDS011;19182;41.820;12.808;2023-08-08T04:18:45;18.40;;;3.97;;
32838;SDS011;19182;41.820;12.808;2023-08-08T04:21:11;16.30;;;4.80;;
32838;SDS011;19182;41.820;12.808;2023-08-08T04:23:36;23.17;;;4.45;;
32838;SDS011;19182;41.820;12.808;2023-08-08T04:26:02;10.43;;;3.65;;
32838;SDS011;19182;41.820;12.808;2023-08-08T04:28:27;16.77;;;4.05;;
32838;SDS011;19182;41.820;12.808;2023-08-08T04:30:53;19.30;;;4.05;;
32838;SDS011;19182;41.820;12.808;2023-08-08T04:33:19;18.63;;;4.82;;
32838;SDS011;19182;41.820;12.808;2023-08-08T04:35:46;18.88;;;4.53;;
32838;SDS011;19182;41.820;12.808;2023-08-08T04:38:13;14.75;;;4.05;;
32838;SDS011;19182;41.820;12.808;2023-08-08T04:40:40;14.68;;;4.25;;
32838;SDS011;19182;41.820;12.808;2023-08-08T04:43:06;11.68;;;4.45;;
32838;SDS011;19182;41.820;12.808;2023-08-08T04:45:31;16.63;;;4.10;;
32838;SDS011;19182;41.820;12.808;2023-08-08T04:47:58;11.95;;;4.38;;
32838;SDS011;19182;41.820;12.808;2023-08-08T04:50:24;12.32;;;3.95;;
32838;SDS011;19182;41.820;12.808;2023-08-08T04:52:50;16.08;;;4.45;;
32838;SDS011;19182;41.820;12.808;2023-08-08T04:55:16;19.17;;;4.38;;
32838;SDS011;19182;41.820;12.808;2023-08-08T04:57:42;19.48;;;5.35;;
32838;SDS011;19182;41.820;12.808;2023-08-08T05:00:08;11.60;;;3.78;;
32838;SDS011;19182;41.820;12.808;2023-08-08T05:02:35;28.30;;;5.13;;
32838;SDS011;19182;41.820;12.808;2023-08-08T05:07:40;16.80;;;4.50;;
32838;SDS011;19182;41.820;12.808;2023-08-08T05:10:06;13.00;;;3.63;;
32838;SDS011;19182;41.820;12.808;2023-08-08T05:12:40;17.35;;;4.53;;
32838;SDS011;19182;41.820;12.808;2023-08-08T05:15:06;13.23;;;4.20;;
32838;SDS011;19182;41.820;12.808;2023-08-08T05:17:32;16.15;;;4.05;;
32838;SDS011;19182;41.820;12.808;2023-08-08T05:19:58;15.98;;;4.15;;
32838;SDS011;19182;41.820;12.808;2023-08-08T05:22:23;17.25;;;3.67;;
32838;SDS011;19182;41.820;12.808;2023-08-08T05:24:49;10.45;;;3.30;;
32838;SDS011;19182;41.820;12.808;2023-08-08T05:27:15;15.27;;;3.50;;
32838;SDS011;19182;41.820;12.808;2023-08-08T05:29:41;14.98;;;3.60;;
32838;SDS011;19182;41.820;12.808;2023-08-08T05:32:07;13.52;;;3.38;;
32838;SDS011;19182;41.820;12.808;2023-08-08T05:34:33;17.23;;;3.60;;
32838;SDS011;19182;41.820;12.808;2023-08-08T05:36:59;12.45;;;4.07;;
32838;SDS011;19182;41.820;12.808;2023-08-08T05:39:25;14.00;;;4.15;;
32838;SDS011;19182;41.820;12.808;2023-08-08T05:41:52;18.48;;;4.68;;
32838;SDS011;19182;41.820;12.808;2023-08-08T05:44:18;13.10;;;4.03;;
32838;SDS011;19182;41.820;12.808;2023-08-08T05:46:44;20.35;;;3.72;;
32838;SDS011;19182;41.820;12.808;2023-08-08T05:49:09;14.80;;;3.53;;
32838;SDS011;19182;41.820;12.808;2023-08-08T05:51:36;14.88;;;4.32;;
32838;SDS011;19182;41.820;12.808;2023-08-08T05:54:04;20.38;;;3.95;;
32838;SDS011;19182;41.820;12.808;2023-08-08T05:56:34;11.75;;;3.20;;
32838;SDS011;19182;41.820;12.808;2023-08-08T05:59:03;12.27;;;3.65;;
32838;SDS011;19182;41.820;12.808;2023-08-08T06:01:30;19.83;;;4.20;;
32838;SDS011;19182;41.820;12.808;2023-08-08T06:03:55;18.83;;;4.05;;
32838;SDS011;19182;41.820;12.808;2023-08-08T06:06:23;6.63;;;2.88;;
32838;SDS011;19182;41.820;12.808;2023-08-08T06:08:49;16.20;;;4.53;;
32838;SDS011;19182;41.820;12.808;2023-08-08T06:11:14;13.85;;;3.25;;
32838;SDS011;19182;41.820;12.808;2023-08-08T06:13:40;16.08;;;4.22;;
32838;SDS011;19182;41.820;12.808;2023-08-08T06:16:06;13.88;;;3.85;;
32838;SDS011;19182;41.820;12.808;2023-08-08T06:18:33;11.63;;;3.78;;
32838;SDS011;19182;41.820;12.808;2023-08-08T06:20:58;12.43;;;2.97;;
32838;SDS011;19182;41.820;12.808;2023-08-08T06:23:25;19.52;;;3.35;;
32838;SDS011;19182;41.820;12.808;2023-08-08T06:25:51;19.58;;;3.55;;
32838;SDS011;19182;41.820;12.808;2023-08-08T06:28:17;7.38;;;2.63;;
32838;SDS011;19182;41.820;12.808;2023-08-08T06:30:43;13.75;;;3.28;;
32838;SDS011;19182;41.820;12.808;2023-08-08T06:33:08;7.82;;;2.80;;
32838;SDS011;19182;41.820;12.808;2023-08-08T06:35:34;11.30;;;3.10;;
32838;SDS011;19182;41.820;12.808;2023-08-08T06:38:00;10.75;;;2.70;;
32838;SDS011;19182;41.820;12.808;2023-08-08T06:40:27;11.48;;;3.47;;
32838;SDS011;19182;41.820;12.808;2023-08-08T06:42:52;10.30;;;2.75;;
32838;SDS011;19182;41.820;12.808;2023-08-08T06:45:18;9.45;;;3.45;;
32838;SDS011;19182;41.820;12.808;2023-08-08T06:47:44;7.38;;;2.25;;
32838;SDS011;19182;41.820;12.808;2023-08-08T06:50:10;13.88;;;3.00;;
32838;SDS011;19182;41.820;12.808;2023-08-08T06:52:36;12.18;;;3.20;;
32838;SDS011;19182;41.820;12.808;2023-08-08T06:55:02;16.02;;;2.72;;
32838;SDS011;19182;41.820;12.808;2023-08-08T06:57:47;10.93;;;2.35;;
32838;SDS011;19182;41.820;12.808;2023-08-08T07:00:12;11.75;;;3.55;;
32838;SDS011;19182;41.820;12.808;2023-08-08T07:02:39;7.90;;;2.20;;
32838;SDS011;19182;41.820;12.808;2023-08-08T07:05:04;10.48;;;3.20;;
32838;SDS011;19182;41.820;12.808;2023-08-08T07:07:31;8.25;;;2.50;;
32838;SDS011;19182;41.820;12.808;2023-08-08T07:09:58;8.95;;;2.85;;
32838;SDS011;19182;41.820;12.808;2023-08-08T07:12:24;12.75;;;3.50;;
32838;SDS011;19182;41.820;12.808;2023-08-08T07:14:50;17.15;;;2.97;;
32838;SDS011;19182;41.820;12.808;2023-08-08T07:17:16;13.40;;;3.13;;
32838;SDS011;19182;41.820;12.808;2023-08-08T07:19:42;12.73;;;3.47;;
32838;SDS011;19182;41.820;12.808;2023-08-08T07:22:09;10.80;;;3.05;;
32838;SDS011;19182;41.820;12.808;2023-08-08T07:24:34;9.90;;;3.25;;
32838;SDS011;19182;41.820;12.808;2023-08-08T07:27:00;12.60;;;3.58;;
32838;SDS011;19182;41.820;12.808;2023-08-08T07:29:26;12.93;;;3.67;;
32838;SDS011;19182;41.820;12.808;2023-08-08T07:31:52;12.52;;;3.97;;
32838;SDS011;19182;41.820;12.808;2023-08-08T07:34:18;60.85;;;31.00;;
32838;SDS011;19182;41.820;12.808;2023-08-08T07:36:44;62.33;;;29.00;;
32838;SDS011;19182;41.820;12.808;2023-08-08T07:39:10;51.50;;;22.95;;
32838;SDS011;19182;41.820;12.808;2023-08-08T07:41:36;15.27;;;7.13;;
32838;SDS011;19182;41.820;12.808;2023-08-08T07:44:09;26.40;;;12.98;;
32838;SDS011;19182;41.820;12.808;2023-08-08T07:46:36;11.65;;;3.83;;
32838;SDS011;19182;41.820;12.808;2023-08-08T07:49:02;9.77;;;2.35;;
32838;SDS011;19182;41.820;12.808;2023-08-08T07:51:29;9.75;;;2.63;;
32838;SDS011;19182;41.820;12.808;2023-08-08T07:53:56;10.90;;;2.55;;
32838;SDS011;19182;41.820;12.808;2023-08-08T07:56:21;8.35;;;2.88;;
32838;SDS011;19182;41.820;12.808;2023-08-08T07:58:49;10.15;;;3.45;;
32838;SDS011;19182;41.820;12.808;2023-08-08T08:01:15;6.93;;;2.83;;
32838;SDS011;19182;41.820;12.808;2023-08-08T08:03:40;8.50;;;3.13;;
32838;SDS011;19182;41.820;12.808;2023-08-08T08:06:06;8.48;;;2.95;;
32838;SDS011;19182;41.820;12.808;2023-08-08T08:08:33;9.45;;;2.85;;
32838;SDS011;19182;41.820;12.808;2023-08-08T08:11:01;5.63;;;2.35;;
32838;SDS011;19182;41.820;12.808;2023-08-08T08:13:27;5.07;;;1.90;;
32838;SDS011;19182;41.820;12.808;2023-08-08T08:15:53;7.07;;;2.33;;
32838;SDS011;19182;41.820;12.808;2023-08-08T08:18:19;13.10;;;2.58;;
32838;SDS011;19182;41.820;12.808;2023-08-08T08:20:45;13.63;;;2.65;;
32838;SDS011;19182;41.820;12.808;2023-08-08T08:23:11;8.13;;;2.20;;
32838;SDS011;19182;41.820;12.808;2023-08-08T08:25:37;10.23;;;2.67;;
32838;SDS011;19182;41.820;12.808;2023-08-08T08:28:03;9.45;;;2.47;;
32838;SDS011;19182;41.820;12.808;2023-08-08T08:30:29;10.63;;;2.60;;
32838;SDS011;19182;41.820;12.808;2023-08-08T08:32:55;8.30;;;2.10;;
32838;SDS011;19182;41.820;12.808;2023-08-08T08:35:24;10.23;;;2.85;;
32838;SDS011;19182;41.820;12.808;2023-08-08T08:37:50;7.45;;;2.60;;
32838;SDS011;19182;41.820;12.808;2023-08-08T08:40:16;9.45;;;2.40;;
32838;SDS011;19182;41.820;12.808;2023-08-08T08:42:42;12.10;;;2.55;;
32838;SDS011;19182;41.820;12.808;2023-08-08T08:45:11;7.45;;;1.83;;
32838;SDS011;19182;41.820;12.808;2023-08-08T08:47:40;6.93;;;2.40;;
32838;SDS011;19182;41.820;12.808;2023-08-08T08:50:08;11.25;;;2.50;;
32838;SDS011;19182;41.820;12.808;2023-08-08T08:52:34;9.05;;;2.65;;
32838;SDS011;19182;41.820;12.808;2023-08-08T08:55:01;13.63;;;2.20;;
32838;SDS011;19182;41.820;12.808;2023-08-08T08:57:28;9.32;;;2.75;;
32838;SDS011;19182;41.820;12.808;2023-08-08T08:59:54;5.97;;;2.00;;
32838;SDS011;19182;41.820;12.808;2023-08-08T09:02:20;10.95;;;2.80;;
32838;SDS011;19182;41.820;12.808;2023-08-08T09:04:47;11.23;;;2.47;;
32838;SDS011;19182;41.820;12.808;2023-08-08T09:07:13;11.13;;;2.78;;
32838;SDS011;19182;41.820;12.808;2023-08-08T09:09:44;13.02;;;2.67;;
32838;SDS011;19182;41.820;12.808;2023-08-08T09:12:10;8.95;;;2.10;;
32838;SDS011;19182;41.820;12.808;2023-08-08T09:14:38;6.28;;;2.47;;
32838;SDS011;19182;41.820;12.808;2023-08-08T09:17:09;8.43;;;2.20;;
32838;SDS011;19182;41.820;12.808;2023-08-08T09:19:41;5.35;;;1.80;;
32838;SDS011;19182;41.820;12.808;2023-08-08T09:22:12;7.10;;;2.03;;
32838;SDS011;19182;41.820;12.808;2023-08-08T09:24:39;6.55;;;2.25;;
32838;SDS011;19182;41.820;12.808;2023-08-08T09:27:09;12.00;;;2.10;;
32838;SDS011;19182;41.820;12.808;2023-08-08T09:32:05;8.38;;;2.53;;
32838;SDS011;19182;41.820;12.808;2023-08-08T09:34:32;5.70;;;1.90;;
32838;SDS011;19182;41.820;12.808;2023-08-08T09:36:58;4.25;;;2.03;;
32838;SDS011;19182;41.820;12.808;2023-08-08T09:39:25;8.38;;;1.88;;
32838;SDS011;19182;41.820;12.808;2023-08-08T09:41:51;3.78;;;1.85;;
32838;SDS011;19182;41.820;12.808;2023-08-08T09:44:16;6.28;;;2.05;;
32838;SDS011;19182;41.820;12.808;2023-08-08T09:46:43;5.50;;;1.70;;
32838;SDS011;19182;41.820;12.808;2023-08-08T09:49:12;5.43;;;1.80;;
32838;SDS011;19182;41.820;12.808;2023-08-08T09:51:38;4.38;;;1.75;;
32838;SDS011;19182;41.820;12.808;2023-08-08T09:54:04;6.45;;;1.77;;
32838;SDS011;19182;41.820;12.808;2023-08-08T09:56:34;5.75;;;1.95;;
32838;SDS011;19182;41.820;12.808;2023-08-08T09:59:00;5.45;;;2.33;;
32838;SDS011;19182;41.820;12.808;2023-08-08T10:01:27;5.60;;;2.03;;
32838;SDS011;19182;41.820;12.808;2023-08-08T10:03:54;9.40;;;1.80;;
32838;SDS011;19182;41.820;12.808;2023-08-08T10:06:20;5.05;;;1.67;;
32838;SDS011;19182;41.820;12.808;2023-08-08T10:08:46;4.47;;;1.40;;
32838;SDS011;19182;41.820;12.808;2023-08-08T10:11:12;6.90;;;1.80;;
32838;SDS011;19182;41.820;12.808;2023-08-08T10:13:46;6.68;;;1.85;;
32838;SDS011;19182;41.820;12.808;2023-08-08T10:16:14;5.70;;;1.80;;
32838;SDS011;19182;41.820;12.808;2023-08-08T10:18:41;4.75;;;1.75;;
32838;SDS011;19182;41.820;12.808;2023-08-08T10:21:07;6.97;;;3.13;;
32838;SDS011;19182;41.820;12.808;2023-08-08T10:23:37;12.10;;;2.90;;
32838;SDS011;19182;41.820;12.808;2023-08-08T10:26:04;10.20;;;3.00;;
32838;SDS011;19182;41.820;12.808;2023-08-08T10:28:31;9.95;;;2.85;;
32838;SDS011;19182;41.820;12.808;2023-08-08T10:31:00;8.43;;;3.00;;
32838;SDS011;19182;41.820;12.808;2023-08-08T10:33:42;8.57;;;2.90;;
32838;SDS011;19182;41.820;12.808;2023-08-08T10:36:09;11.93;;;3.40;;
32838;SDS011;19182;41.820;12.808;2023-08-08T10:38:43;6.95;;;2.58;;
32838;SDS011;19182;41.820;12.808;2023-08-08T10:41:09;12.15;;;3.63;;
32838;SDS011;19182;41.820;12.808;2023-08-08T10:43:37;12.53;;;3.00;;
32838;SDS011;19182;41.820;12.808;2023-08-08T10:46:04;13.35;;;2.72;;
32838;SDS011;19182;41.820;12.808;2023-08-08T10:48:30;9.10;;;2.63;;
32838;SDS011;19182;41.820;12.808;2023-08-08T10:51:00;7.07;;;2.15;;
32838;SDS011;19182;41.820;12.808;2023-08-08T10:53:26;7.00;;;2.00;;
32838;SDS011;19182;41.820;12.808;2023-08-08T10:56:00;5.38;;;2.38;;
32838;SDS011;19182;41.820;12.808;2023-08-08T10:58:37;8.45;;;2.60;;
32838;SDS011;19182;41.820;12.808;2023-08-08T11:01:06;7.55;;;2.33;;
32838;SDS011;19182;41.820;12.808;2023-08-08T11:03:34;6.40;;;2.15;;
32838;SDS011;19182;41.820;12.808;2023-08-08T11:06:02;5.65;;;2.15;;
32838;SDS011;19182;41.820;12.808;2023-08-08T11:08:29;9.07;;;2.42;;
32838;SDS011;19182;41.820;12.808;2023-08-08T11:10:56;6.43;;;2.28;;
32838;SDS011;19182;41.820;12.808;2023-08-08T11:13:22;10.82;;;2.80;;
32838;SDS011;19182;41.820;12.808;2023-08-08T11:15:48;5.57;;;1.83;;
32838;SDS011;19182;41.820;12.808;2023-08-08T11:18:15;5.32;;;2.10;;
32838;SDS011;19182;41.820;12.808;2023-08-08T11:20:42;7.38;;;2.30;;
32838;SDS011;19182;41.820;12.808;2023-08-08T11:23:09;15.90;;;2.75;;
32838;SDS011;19182;41.820;12.808;2023-08-08T11:25:36;6.30;;;2.40;;
32838;SDS011;19182;41.820;12.808;2023-08-08T11:28:02;5.53;;;2.03;;
32838;SDS011;19182;41.820;12.808;2023-08-08T11:30:29;3.50;;;1.95;;
32838;SDS011;19182;41.820;12.808;2023-08-08T11:32:59;4.32;;;1.30;;
32838;SDS011;19182;41.820;12.808;2023-08-08T11:38:02;8.23;;;1.90;;
32838;SDS011;19182;41.820;12.808;2023-08-08T11:40:29;4.53;;;1.55;;
32838;SDS011;19182;41.820;12.808;2023-08-08T11:42:56;5.20;;;1.80;;
32838;SDS011;19182;41.820;12.808;2023-08-08T11:45:23;3.58;;;1.65;;
32838;SDS011;19182;41.820;12.808;2023-08-08T11:47:51;9.55;;;2.50;;
32838;SDS011;19182;41.820;12.808;2023-08-08T11:50:21;3.50;;;1.42;;
32838;SDS011;19182;41.820;12.808;2023-08-08T11:52:49;4.70;;;1.73;;
32838;SDS011;19182;41.820;12.808;2023-08-08T11:55:16;5.53;;;1.33;;
32838;SDS011;19182;41.820;12.808;2023-08-08T11:57:47;6.55;;;1.70;;
32838;SDS011;19182;41.820;12.808;2023-08-08T12:00:13;6.88;;;1.90;;
32838;SDS011;19182;41.820;12.808;2023-08-08T12:02:39;3.65;;;1.45;;
32838;SDS011;19182;41.820;12.808;2023-08-08T12:05:11;7.88;;;1.55;;
32838;SDS011;19182;41.820;12.808;2023-08-08T12:07:39;2.95;;;1.52;;
32838;SDS011;19182;41.820;12.808;2023-08-08T12:10:14;5.73;;;1.50;;
32838;SDS011;19182;41.820;12.808;2023-08-08T12:12:42;4.18;;;1.48;;
32838;SDS011;19182;41.820;12.808;2023-08-08T12:15:09;4.40;;;1.45;;
32838;SDS011;19182;41.820;12.808;2023-08-08T12:17:36;4.93;;;1.85;;
32838;SDS011;19182;41.820;12.808;2023-08-08T12:20:03;7.93;;;1.75;;
32838;SDS011;19182;41.820;12.808;2023-08-08T12:22:32;4.68;;;1.63;;
32838;SDS011;19182;41.820;12.808;2023-08-08T12:24:59;4.30;;;1.58;;
32838;SDS011;19182;41.820;12.808;2023-08-08T12:27:25;4.68;;;1.50;;
32838;SDS011;19182;41.820;12.808;2023-08-08T12:29:51;3.95;;;1.60;;
32838;SDS011;19182;41.820;12.808;2023-08-08T12:32:19;6.60;;;1.83;;
32838;SDS011;19182;41.820;12.808;2023-08-08T12:34:48;2.65;;;1.42;;
32838;SDS011;19182;41.820;12.808;2023-08-08T12:37:14;5.35;;;1.52;;
32838;SDS011;19182;41.820;12.808;2023-08-08T12:39:42;7.32;;;2.08;;
32838;SDS011;19182;41.820;12.808;2023-08-08T12:42:08;3.03;;;1.55;;
32838;SDS011;19182;41.820;12.808;2023-08-08T12:44:34;6.68;;;1.90;;
32838;SDS011;19182;41.820;12.808;2023-08-08T12:47:01;4.22;;;1.50;;
32838;SDS011;19182;41.820;12.808;2023-08-08T12:49:26;4.88;;;1.77;;
32838;SDS011;19182;41.820;12.808;2023-08-08T12:51:53;7.53;;;1.88;;
32838;SDS011;19182;41.820;12.808;2023-08-08T12:54:21;6.07;;;2.00;;
32838;SDS011;19182;41.820;12.808;2023-08-08T12:56:47;6.93;;;2.00;;
32838;SDS011;19182;41.820;12.808;2023-08-08T12:59:13;3.70;;;1.63;;
32838;SDS011;19182;41.820;12.808;2023-08-08T13:01:39;6.15;;;1.70;;
32838;SDS011;19182;41.820;12.808;2023-08-08T13:04:04;5.65;;;1.70;;
32838;SDS011;19182;41.820;12.808;2023-08-08T13:06:31;8.25;;;1.80;;
32838;SDS011;19182;41.820;12.808;2023-08-08T13:08:58;5.30;;;1.65;;
32838;SDS011;19182;41.820;12.808;2023-08-08T13:11:25;6.22;;;1.63;;
32838;SDS011;19182;41.820;12.808;2023-08-08T13:13:52;4.53;;;1.55;;
32838;SDS011;19182;41.820;12.808;2023-08-08T13:16:17;3.53;;;1.48;;
32838;SDS011;19182;41.820;12.808;2023-08-08T13:18:43;5.13;;;1.52;;
32838;SDS011;19182;41.820;12.808;2023-08-08T13:21:09;5.00;;;1.38;;
32838;SDS011;19182;41.820;12.808;2023-08-08T13:23:35;4.57;;;1.40;;
32838;SDS011;19182;41.820;12.808;2023-08-08T13:26:01;4.85;;;1.48;;
32838;SDS011;19182;41.820;12.808;2023-08-08T13:28:29;5.45;;;1.67;;
32838;SDS011;19182;41.820;12.808;2023-08-08T13:30:56;4.35;;;1.67;;
32838;SDS011;19182;41.820;12.808;2023-08-08T13:33:23;9.23;;;1.60;;
32838;SDS011;19182;41.820;12.808;2023-08-08T13:35:49;5.30;;;2.05;;
32838;SDS011;19182;41.820;12.808;2023-08-08T13:38:14;3.42;;;1.55;;
32838;SDS011;19182;41.820;12.808;2023-08-08T13:40:41;8.95;;;1.50;;
32838;SDS011;19182;41.820;12.808;2023-08-08T13:43:08;3.53;;;1.48;;
32838;SDS011;19182;41.820;12.808;2023-08-08T13:45:34;7.32;;;1.48;;
32838;SDS011;19182;41.820;12.808;2023-08-08T13:48:01;4.13;;;1.55;;
32838;SDS011;19182;41.820;12.808;2023-08-08T13:50:27;5.32;;;1.65;;
32838;SDS011;19182;41.820;12.808;2023-08-08T13:52:54;5.25;;;1.55;;
32838;SDS011;19182;41.820;12.808;2023-08-08T13:55:20;4.95;;;1.90;;
32838;SDS011;19182;41.820;12.808;2023-08-08T13:57:47;4.95;;;1.30;;
32838;SDS011;19182;41.820;12.808;2023-08-08T14:00:13;3.85;;;1.10;;
32838;SDS011;19182;41.820;12.808;2023-08-08T14:02:40;4.82;;;1.50;;
32838;SDS011;19182;41.820;12.808;2023-08-08T14:05:06;4.82;;;1.70;;
32838;SDS011;19182;41.820;12.808;2023-08-08T14:07:33;5.47;;;1.50;;
32838;SDS011;19182;41.820;12.808;2023-08-08T14:10:04;5.05;;;1.55;;
32838;SDS011;19182;41.820;12.808;2023-08-08T14:12:34;6.38;;;1.80;;
32838;SDS011;19182;41.820;12.808;2023-08-08T14:14:59;5.95;;;1.42;;
32838;SDS011;19182;41.820;12.808;2023-08-08T14:17:26;6.35;;;1.60;;
32838;SDS011;19182;41.820;12.808;2023-08-08T14:19:53;6.57;;;1.80;;
32838;SDS011;19182;41.820;12.808;2023-08-08T14:22:19;9.27;;;1.85;;
32838;SDS011;19182;41.820;12.808;2023-08-08T14:24:45;4.30;;;1.40;;
32838;SDS011;19182;41.820;12.808;2023-08-08T14:27:10;6.47;;;1.52;;
32838;SDS011;19182;41.820;12.808;2023-08-08T14:29:54;6.20;;;1.60;;
32838;SDS011;19182;41.820;12.808;2023-08-08T14:32:20;7.15;;;1.30;;
32838;SDS011;19182;41.820;12.808;2023-08-08T14:34:45;13.02;;;1.77;;
32838;SDS011;19182;41.820;12.808;2023-08-08T14:37:13;5.18;;;1.55;;
32838;SDS011;19182;41.820;12.808;2023-08-08T14:39:39;4.57;;;1.52;;